createdAt,value
2018-04-29T00:02:01.115Z,21.50
2018-04-29T00:04:27.414Z,21.70
2018-04-29T00:06:53.687Z,22.93
2018-04-29T00:09:20.018Z,23.17
2018-04-29T00:11:46.396Z,24.47
2018-04-29T00:14:12.695Z,87.80
2018-04-29T00:16:39.078Z,31.23
2018-04-29T00:19:05.358Z,27.43
2018-04-29T00:21:31.635Z,27.33
2018-04-29T00:23:58.040Z,26.97
2018-04-29T00:26:24.299Z,29.43
2018-04-29T00:28:50.564Z,26.43
2018-04-29T00:31:17.071Z,26.23
2018-04-29T00:33:44.622Z,28.50
2018-04-29T00:36:10.890Z,27.63
2018-04-29T00:38:39.381Z,27.57
2018-04-29T00:41:07.182Z,29.37
2018-04-29T00:43:33.451Z,24.63
2018-04-29T00:46:02.936Z,25.00
2018-04-29T00:48:29.442Z,25.80
2018-04-29T00:50:55.785Z,24.93
2018-04-29T00:53:21.987Z,25.27
2018-04-29T00:55:51.484Z,24.87
2018-04-29T00:58:17.796Z,26.00
2018-04-29T01:00:44.050Z,26.57
2018-04-29T01:03:10.384Z,26.70
2018-04-29T01:05:36.720Z,29.73
2018-04-29T01:08:03.051Z,29.10
2018-04-29T01:10:29.721Z,28.30
2018-04-29T01:12:59.079Z,30.03
2018-04-29T01:15:25.608Z,27.47
2018-04-29T01:17:51.870Z,25.70
2018-04-29T01:20:18.292Z,24.83
2018-04-29T01:22:44.841Z,23.73
2018-04-29T01:25:11.166Z,24.00
2018-04-29T01:27:37.446Z,22.83
2018-04-29T01:30:03.837Z,23.53
2018-04-29T01:32:30.104Z,22.57
2018-04-29T01:34:56.386Z,23.07
2018-04-29T01:37:22.843Z,22.80
2018-04-29T01:39:49.106Z,23.73
2018-04-29T01:42:15.376Z,21.87
2018-04-29T01:44:41.639Z,21.63
2018-04-29T01:47:07.994Z,24.03
2018-04-29T01:49:34.355Z,25.13
2018-04-29T01:52:00.834Z,26.53
2018-04-29T01:54:27.178Z,26.53
2018-04-29T01:56:53.441Z,26.17
2018-04-29T01:59:19.810Z,24.77
2018-04-29T02:01:46.240Z,39.10
2018-04-29T02:04:12.973Z,75.67
2018-04-29T02:06:39.371Z,108.43
2018-04-29T02:09:05.637Z,54.33
2018-04-29T02:11:31.942Z,34.47
2018-04-29T02:13:58.205Z,33.57
2018-04-29T02:16:24.527Z,32.10
2018-04-29T02:18:50.843Z,33.23
2018-04-29T02:21:17.095Z,29.37
2018-04-29T02:23:43.362Z,34.13
2018-04-29T02:26:09.914Z,26.67
2018-04-29T02:28:36.167Z,24.70
2018-04-29T02:31:02.439Z,25.03
2018-04-29T02:33:28.803Z,23.27
2018-04-29T02:35:55.051Z,21.97
2018-04-29T02:38:21.343Z,22.13
2018-04-29T02:40:47.659Z,21.93
2018-04-29T02:43:13.910Z,21.67
2018-04-29T02:45:40.386Z,28.67
2018-04-29T02:48:06.646Z,29.30
2018-04-29T02:50:32.978Z,28.43
2018-04-29T02:53:02.132Z,24.97
2018-04-29T02:55:28.457Z,23.63
2018-04-29T02:57:54.736Z,25.50
2018-04-29T03:00:21.048Z,25.43
2018-04-29T03:02:47.394Z,26.03
2018-04-29T03:05:13.664Z,24.67
2018-04-29T03:07:39.919Z,23.40
2018-04-29T03:10:06.672Z,24.47
2018-04-29T03:12:32.920Z,26.73
2018-04-29T03:14:59.185Z,23.83
2018-04-29T03:17:25.507Z,21.33
2018-04-29T03:19:51.776Z,23.77
2018-04-29T03:22:18.152Z,21.17
2018-04-29T03:24:44.448Z,24.17
2018-04-29T03:27:10.726Z,29.07
2018-04-29T03:29:37.131Z,26.27
2018-04-29T03:32:03.610Z,28.90
2018-04-29T03:34:29.870Z,28.17
2018-04-29T03:36:56.181Z,26.93
2018-04-29T03:39:22.459Z,26.00
2018-04-29T03:41:48.740Z,24.53
2018-04-29T03:44:18.183Z,26.23
2018-04-29T03:46:44.451Z,27.00
2018-04-29T03:49:10.709Z,24.10
2018-04-29T03:51:37.027Z,24.90
2018-04-29T03:54:03.316Z,22.40
2018-04-29T03:56:29.620Z,22.50
2018-04-29T04:02:08.143Z,22.40
2018-04-29T04:04:34.512Z,21.80
2018-04-29T04:07:00.803Z,26.90
2018-04-29T04:09:27.093Z,32.10
2018-04-29T04:11:53.397Z,22.40
2018-04-29T04:14:19.719Z,24.30
2018-04-29T04:16:45.978Z,28.33
2018-04-29T04:19:12.301Z,27.13
2018-04-29T04:21:38.586Z,28.17
2018-04-29T04:24:04.882Z,29.60
2018-04-29T04:26:31.313Z,30.50
2018-04-29T04:28:57.569Z,29.43
2018-04-29T04:31:23.909Z,27.10
2018-04-29T04:33:50.128Z,26.33
2018-04-29T04:36:16.483Z,38.57
2018-04-29T04:38:42.772Z,32.37
2018-04-29T04:41:09.052Z,25.27
2018-04-29T04:43:35.360Z,24.43
2018-04-29T04:46:02.151Z,28.33
2018-04-29T04:48:28.486Z,22.63
2018-04-29T04:50:54.867Z,31.83
2018-04-29T04:53:21.126Z,26.60
2018-04-29T04:55:47.470Z,25.97
2018-04-29T04:58:13.903Z,24.77
2018-04-29T05:00:40.099Z,25.30
2018-04-29T05:03:06.353Z,27.80
2018-04-29T05:05:32.703Z,79.53
2018-04-29T05:07:58.971Z,27.47
2018-04-29T05:10:25.239Z,31.00
2018-04-29T05:12:51.533Z,35.70
2018-04-29T05:15:17.789Z,25.80
2018-04-29T05:17:44.054Z,26.97
2018-04-29T05:20:10.494Z,28.67
2018-04-29T05:22:36.804Z,26.90
2018-04-29T05:25:03.101Z,28.60
2018-04-29T05:27:29.457Z,30.27
2018-04-29T05:29:55.725Z,30.03
2018-04-29T05:32:22.075Z,27.50
2018-04-29T05:34:48.339Z,26.47
2018-04-29T05:37:14.601Z,26.20
2018-04-29T05:39:41.091Z,25.80
2018-04-29T05:42:07.361Z,26.20
2018-04-29T05:44:33.688Z,25.53
2018-04-29T05:47:00.138Z,24.03
2018-04-29T05:49:26.506Z,24.75
2018-04-29T05:51:52.794Z,22.43
2018-04-29T05:54:19.313Z,20.97
2018-04-29T05:56:45.664Z,16.93
2018-04-29T05:59:11.955Z,27.17
2018-04-29T06:01:38.216Z,15.47
2018-04-29T06:04:04.656Z,17.27
2018-04-29T06:06:30.961Z,18.37
2018-04-29T06:08:57.274Z,19.20
2018-04-29T06:11:23.539Z,20.03
2018-04-29T06:13:49.919Z,18.40
2018-04-29T06:16:16.185Z,17.67
2018-04-29T06:18:42.463Z,17.30
2018-04-29T06:21:09.171Z,15.73
2018-04-29T06:23:35.551Z,17.07
2018-04-29T06:26:01.955Z,16.33
2018-04-29T06:28:28.232Z,61.60
2018-04-29T06:30:54.555Z,22.63
2018-04-29T06:33:21.146Z,19.93
2018-04-29T06:35:47.410Z,17.90
2018-04-29T06:38:13.940Z,17.27
2018-04-29T06:40:40.294Z,15.37
2018-04-29T06:43:06.546Z,14.87
2018-04-29T06:45:32.818Z,16.70
2018-04-29T06:47:59.122Z,14.97
2018-04-29T06:50:25.454Z,12.53
2018-04-29T06:52:51.728Z,13.40
2018-04-29T06:55:18.078Z,15.23
2018-04-29T06:57:44.404Z,15.63
2018-04-29T07:00:10.721Z,15.33
2018-04-29T07:02:37.172Z,15.23
2018-04-29T07:05:03.470Z,17.00
2018-04-29T07:07:29.789Z,16.30
2018-04-29T07:09:56.095Z,14.67
2018-04-29T07:12:22.501Z,16.17
2018-04-29T07:14:48.774Z,18.40
2018-04-29T07:17:16.049Z,20.53
2018-04-29T07:19:42.306Z,17.23
2018-04-29T07:22:08.601Z,12.77
2018-04-29T07:24:34.908Z,12.70
2018-04-29T07:27:01.271Z,13.73
2018-04-29T07:29:27.556Z,14.30
2018-04-29T07:31:53.838Z,14.03
2018-04-29T07:34:23.339Z,14.67
2018-04-29T07:36:49.688Z,14.50
2018-04-29T07:39:16.030Z,14.67
2018-04-29T07:41:42.333Z,11.83
2018-04-29T07:44:08.735Z,11.07
2018-04-29T07:46:35.032Z,11.27
2018-04-29T07:49:01.458Z,12.30
2018-04-29T07:51:27.731Z,12.53
2018-04-29T07:53:54.129Z,12.67
2018-04-29T07:56:20.437Z,11.33
2018-04-29T07:58:46.804Z,11.50
2018-04-29T08:01:13.283Z,9.93
2018-04-29T08:03:39.864Z,9.17
2018-04-29T08:06:06.486Z,8.73
2018-04-29T08:08:32.951Z,10.00
2018-04-29T08:10:59.359Z,10.00
2018-04-29T08:13:25.883Z,7.50
2018-04-29T08:15:52.289Z,8.17
2018-04-29T08:18:19.201Z,9.13
2018-04-29T08:20:45.511Z,7.30
2018-04-29T08:23:11.965Z,5.97
2018-04-29T08:25:38.376Z,6.47
2018-04-29T08:28:04.810Z,6.13
2018-04-29T08:30:31.153Z,27.03
2018-04-29T08:32:57.512Z,4.70
2018-04-29T08:35:24.015Z,4.30
2018-04-29T08:37:50.366Z,6.23
2018-04-29T08:40:16.902Z,4.90
2018-04-29T08:42:43.340Z,4.23
2018-04-29T08:45:09.730Z,4.67
2018-04-29T08:47:36.118Z,4.43
2018-04-29T08:50:02.538Z,3.73
2018-04-29T08:52:28.942Z,4.03
2018-04-29T08:54:55.339Z,4.50
2018-04-29T08:57:21.763Z,3.73
2018-04-29T08:59:48.163Z,4.80
2018-04-29T09:02:14.514Z,4.83
2018-04-29T09:04:40.964Z,3.70
2018-04-29T09:07:07.374Z,4.70
2018-04-29T09:09:33.741Z,4.50
2018-04-29T09:12:00.430Z,3.87
2018-04-29T09:14:26.752Z,3.80
2018-04-29T09:16:53.178Z,4.13
2018-04-29T09:19:19.542Z,4.27
2018-04-29T09:21:45.890Z,4.00
2018-04-29T09:24:12.229Z,3.83
2018-04-29T09:26:38.696Z,3.87
2018-04-29T09:29:05.161Z,4.17
2018-04-29T09:31:31.583Z,4.07
2018-04-29T09:33:57.982Z,3.20
2018-04-29T09:36:24.355Z,3.30
2018-04-29T09:38:50.706Z,3.93
2018-04-29T09:41:17.114Z,3.90
2018-04-29T09:43:43.533Z,3.17
2018-04-29T09:46:09.840Z,3.40
2018-04-29T09:48:36.336Z,3.60
2018-04-29T09:51:02.671Z,3.43
2018-04-29T09:53:28.988Z,3.07
2018-04-29T09:55:55.364Z,3.60
2018-04-29T09:58:21.823Z,4.20
2018-04-29T10:00:50.125Z,4.13
2018-04-29T10:03:16.501Z,3.70
2018-04-29T10:05:42.876Z,4.73
2018-04-29T10:08:09.288Z,3.83
2018-04-29T10:10:36.090Z,3.20
2018-04-29T10:13:02.592Z,3.67
2018-04-29T10:15:28.992Z,3.33
2018-04-29T10:17:55.297Z,4.10
2018-04-29T10:20:28.760Z,3.97
2018-04-29T10:22:55.171Z,4.10
2018-04-29T10:25:21.503Z,3.83
2018-04-29T10:27:47.855Z,3.30
2018-04-29T10:30:14.258Z,3.90
2018-04-29T10:32:40.595Z,3.17
2018-04-29T10:35:06.975Z,3.80
2018-04-29T10:37:33.397Z,3.70
2018-04-29T10:40:00.337Z,3.73
2018-04-29T10:42:26.742Z,3.47
2018-04-29T10:44:53.138Z,4.20
2018-04-29T10:47:19.518Z,3.60
2018-04-29T10:49:45.885Z,3.13
2018-04-29T10:52:12.496Z,3.40
2018-04-29T10:54:38.917Z,3.30
2018-04-29T10:57:05.255Z,2.97
2018-04-29T10:59:31.682Z,2.90
2018-04-29T11:01:58.052Z,3.20
2018-04-29T11:04:24.458Z,3.30
2018-04-29T11:06:50.750Z,3.37
2018-04-29T11:09:17.077Z,3.63
2018-04-29T11:11:43.468Z,3.67
2018-04-29T11:14:10.007Z,3.60
2018-04-29T11:16:36.301Z,3.87
2018-04-29T11:19:02.642Z,3.10
2018-04-29T11:21:29.028Z,3.60
2018-04-29T11:23:55.399Z,3.83
2018-04-29T11:26:21.798Z,2.67
2018-04-29T11:28:48.158Z,3.30
2018-04-29T11:31:14.603Z,3.23
2018-04-29T11:33:40.933Z,3.57
2018-04-29T11:36:07.287Z,3.60
2018-04-29T11:38:33.659Z,3.00
2018-04-29T11:41:00.056Z,3.37
2018-04-29T11:43:26.669Z,3.23
2018-04-29T11:45:53.003Z,3.57
2018-04-29T11:48:19.393Z,3.40
2018-04-29T11:50:45.851Z,3.70
2018-04-29T11:53:12.289Z,4.30
2018-04-29T11:55:38.651Z,5.20
2018-04-29T11:58:05.075Z,3.37
2018-04-29T12:00:31.395Z,4.27
2018-04-29T12:02:57.758Z,4.37
2018-04-29T12:05:24.247Z,3.50
2018-04-29T12:07:50.578Z,4.90
2018-04-29T12:10:16.952Z,4.20
2018-04-29T12:12:43.489Z,3.27
2018-04-29T12:15:09.864Z,5.80
2018-04-29T12:17:36.240Z,3.90
2018-04-29T12:20:02.639Z,5.03
2018-04-29T12:22:28.993Z,3.70
2018-04-29T12:24:55.367Z,3.00
2018-04-29T12:27:21.711Z,2.60
2018-04-29T12:29:48.324Z,2.40
2018-04-29T12:32:14.775Z,2.67
2018-04-29T12:34:41.163Z,3.57
2018-04-29T12:37:07.590Z,3.50
2018-04-29T12:39:34.203Z,3.30
2018-04-29T12:42:00.563Z,3.20
2018-04-29T12:44:29.889Z,3.33
2018-04-29T12:46:56.240Z,3.30
2018-04-29T12:49:22.627Z,3.20
2018-04-29T12:51:48.963Z,4.30
2018-04-29T12:54:15.559Z,3.70
2018-04-29T12:56:41.945Z,3.90
2018-04-29T12:59:08.303Z,4.17
2018-04-29T13:01:34.735Z,6.53
2018-04-29T13:04:01.060Z,6.00
2018-04-29T13:06:27.396Z,4.57
2018-04-29T13:08:53.780Z,3.20
2018-04-29T13:11:20.086Z,2.77
2018-04-29T13:13:46.437Z,2.67
2018-04-29T13:16:13.368Z,3.00
2018-04-29T13:18:39.790Z,3.30
2018-04-29T13:21:06.067Z,4.40
2018-04-29T13:23:32.449Z,4.17
2018-04-29T13:25:58.915Z,3.70
2018-04-29T13:28:25.213Z,3.27
2018-04-29T13:30:51.590Z,3.07
2018-04-29T13:33:18.035Z,2.97
2018-04-29T13:35:44.440Z,3.80
2018-04-29T13:38:11.307Z,3.73
2018-04-29T13:40:37.719Z,5.83
2018-04-29T13:43:04.090Z,5.77
2018-04-29T13:45:30.387Z,4.57
2018-04-29T13:47:56.751Z,3.63
2018-04-29T13:50:23.404Z,5.27
2018-04-29T13:52:49.890Z,6.50
2018-04-29T13:55:16.270Z,4.43
2018-04-29T13:57:42.710Z,3.20
2018-04-29T14:00:09.047Z,3.57
2018-04-29T14:02:35.382Z,4.10
2018-04-29T14:05:01.884Z,4.67
2018-04-29T14:07:28.423Z,5.70
2018-04-29T14:09:54.783Z,4.87
2018-04-29T14:12:21.235Z,6.00
2018-04-29T14:14:47.527Z,5.83
2018-04-29T14:17:13.866Z,4.93
2018-04-29T14:19:40.214Z,5.37
2018-04-29T14:22:06.514Z,4.67
2018-04-29T14:24:32.821Z,4.80
2018-04-29T14:26:59.182Z,6.03
2018-04-29T14:29:25.552Z,6.40
2018-04-29T14:31:51.907Z,5.60
2018-04-29T14:34:18.582Z,5.57
2018-04-29T14:36:45.003Z,5.17
2018-04-29T14:39:11.631Z,37.77
2018-04-29T14:41:38.250Z,9.30
2018-04-29T14:44:04.580Z,7.10
2018-04-29T14:46:30.873Z,4.97
2018-04-29T14:48:57.255Z,16.90
2018-04-29T14:51:23.581Z,9.13
2018-04-29T14:53:49.916Z,17.77
2018-04-29T14:56:16.371Z,7.97
2018-04-29T14:58:42.967Z,14.77
2018-04-29T15:01:09.304Z,6.83
2018-04-29T15:03:36.102Z,9.37
2018-04-29T15:06:02.525Z,6.80
2018-04-29T15:08:29.248Z,6.13
2018-04-29T15:10:55.674Z,5.53
2018-04-29T15:13:22.175Z,6.40
2018-04-29T15:15:48.740Z,5.00
2018-04-29T15:18:27.224Z,5.73
2018-04-29T15:20:59.277Z,6.30
2018-04-29T15:23:27.146Z,6.23
2018-04-29T15:25:53.704Z,7.07
2018-04-29T15:28:20.406Z,6.00
2018-04-29T15:30:46.846Z,5.93
2018-04-29T15:33:13.236Z,5.53
2018-04-29T15:35:39.643Z,6.00
2018-04-29T15:38:06.164Z,6.67
2018-04-29T15:40:32.631Z,5.93
2018-04-29T15:42:59.049Z,50.57
2018-04-29T15:45:32.316Z,49.80
2018-04-29T15:47:58.681Z,10.97
2018-04-29T15:50:25.127Z,11.20
2018-04-29T15:52:51.484Z,6.73
2018-04-29T15:55:18.047Z,7.77
2018-04-29T15:57:44.479Z,5.87
2018-04-29T16:00:10.961Z,5.73
2018-04-29T16:02:37.364Z,6.50
2018-04-29T16:05:03.790Z,5.13
2018-04-29T16:07:30.188Z,6.27
2018-04-29T16:09:56.527Z,5.93
2018-04-29T16:12:22.895Z,7.73
2018-04-29T16:14:49.419Z,5.77
2018-04-29T16:17:16.005Z,6.17
2018-04-29T16:19:42.476Z,5.90
2018-04-29T16:22:08.873Z,6.13
2018-04-29T16:24:35.234Z,6.37
2018-04-29T16:27:01.613Z,22.87
2018-04-29T16:29:27.958Z,28.00
2018-04-29T16:31:54.431Z,13.60
2018-04-29T16:34:20.825Z,10.80
2018-04-29T16:36:47.232Z,6.23
2018-04-29T16:39:13.616Z,17.43
2018-04-29T16:41:40.056Z,18.67
2018-04-29T16:44:06.430Z,16.47
2018-04-29T16:46:32.838Z,20.27
2018-04-29T16:48:59.330Z,24.00
2018-04-29T16:51:25.691Z,12.73
2018-04-29T16:53:52.099Z,15.93
2018-04-29T16:56:18.466Z,13.17
2018-04-29T16:58:44.860Z,8.90
2018-04-29T17:01:11.226Z,9.87
2018-04-29T17:03:37.632Z,7.73
2018-04-29T17:06:04.017Z,6.57
2018-04-29T17:08:30.367Z,5.63
2018-04-29T17:10:56.703Z,6.43
2018-04-29T17:13:23.178Z,6.33
2018-04-29T17:15:49.509Z,7.47
2018-04-29T17:18:15.897Z,6.93
2018-04-29T17:20:42.169Z,7.07
2018-04-29T17:23:08.649Z,8.03
2018-04-29T17:25:35.005Z,5.60
2018-04-29T17:28:01.304Z,8.20
2018-04-29T17:30:27.597Z,13.97
2018-04-29T17:32:54.004Z,10.77
2018-04-29T17:35:20.516Z,9.40
2018-04-29T17:37:46.830Z,11.07
2018-04-29T17:40:13.124Z,8.60
2018-04-29T17:42:39.429Z,23.20
2018-04-29T17:45:05.823Z,47.57
2018-04-29T17:47:32.118Z,15.33
2018-04-29T17:49:58.966Z,19.07
2018-04-29T17:52:25.458Z,18.03
2018-04-29T17:54:51.828Z,16.80
2018-04-29T17:57:18.112Z,25.57
2018-04-29T17:59:44.467Z,20.57
2018-04-29T18:02:10.733Z,17.93
2018-04-29T18:04:37.022Z,17.47
2018-04-29T18:07:03.415Z,18.10
2018-04-29T18:09:29.698Z,16.17
2018-04-29T18:11:56.065Z,15.67
2018-04-29T18:14:22.502Z,17.03
2018-04-29T18:16:48.786Z,11.43
2018-04-29T18:19:15.174Z,12.30
2018-04-29T18:21:44.598Z,10.53
2018-04-29T18:24:11.012Z,10.60
2018-04-29T18:26:37.290Z,13.70
2018-04-29T18:29:03.560Z,41.90
2018-04-29T18:31:29.891Z,10.03
2018-04-29T18:33:56.176Z,13.07
2018-04-29T18:36:22.510Z,12.63
2018-04-29T18:38:48.910Z,16.27
2018-04-29T18:41:15.439Z,16.60
2018-04-29T18:43:42.454Z,17.57
2018-04-29T18:46:08.765Z,17.17
2018-04-29T18:48:35.080Z,15.77
2018-04-29T18:51:01.672Z,15.33
2018-04-29T18:53:27.754Z,11.50
2018-04-29T18:55:54.147Z,12.17
2018-04-29T18:58:20.443Z,11.30
2018-04-29T19:00:46.814Z,12.10
2018-04-29T19:03:13.349Z,13.80
2018-04-29T19:05:45.691Z,16.00
2018-04-29T19:08:12.054Z,16.50
2018-04-29T19:10:38.365Z,13.60
2018-04-29T19:13:04.901Z,14.47
2018-04-29T19:15:31.407Z,13.03
2018-04-29T19:17:57.671Z,12.17
2018-04-29T19:20:23.953Z,12.17
2018-04-29T19:22:50.277Z,11.63
2018-04-29T19:25:16.942Z,14.10
2018-04-29T19:27:43.227Z,14.70
2018-04-29T19:30:09.671Z,14.83
2018-04-29T19:32:36.218Z,50.90
2018-04-29T19:35:02.612Z,103.70
2018-04-29T19:37:28.917Z,21.03
2018-04-29T19:39:55.310Z,15.43
2018-04-29T19:42:21.591Z,13.87
2018-04-29T19:44:47.956Z,13.60
2018-04-29T19:47:14.392Z,11.70
2018-04-29T19:49:41.007Z,13.33
2018-04-29T19:52:07.211Z,12.77
2018-04-29T19:54:33.654Z,12.80
2018-04-29T19:56:59.932Z,12.77
2018-04-29T19:59:26.610Z,13.90
2018-04-29T20:01:52.982Z,12.97
2018-04-29T20:04:19.282Z,12.83
2018-04-29T20:06:45.555Z,12.40
2018-04-29T20:09:11.896Z,12.27
2018-04-29T20:11:38.350Z,11.03
2018-04-29T20:14:04.663Z,9.03
2018-04-29T20:16:30.942Z,10.73
2018-04-29T20:18:57.216Z,6.30
2018-04-29T20:21:23.549Z,6.27
2018-04-29T20:23:49.854Z,6.23
2018-04-29T20:26:16.165Z,5.53
2018-04-29T20:28:42.602Z,6.20
2018-04-29T20:31:08.915Z,8.03
2018-04-29T20:33:35.297Z,9.20
2018-04-29T20:36:01.578Z,12.43
2018-04-29T20:38:27.874Z,13.20
2018-04-29T20:40:54.247Z,13.37
2018-04-29T20:43:20.539Z,12.80
2018-04-29T20:45:46.818Z,12.83
2018-04-29T20:48:13.234Z,13.87
2018-04-29T20:50:39.529Z,14.03
2018-04-29T20:53:05.915Z,13.80
2018-04-29T20:55:32.298Z,11.77
2018-04-29T20:57:58.626Z,12.90
2018-04-29T21:00:24.959Z,14.10
2018-04-29T21:02:51.238Z,15.10
2018-04-29T21:05:17.523Z,13.27
2018-04-29T21:07:43.879Z,11.77
2018-04-29T21:10:10.162Z,11.07
2018-04-29T21:12:36.464Z,10.67
2018-04-29T21:15:02.875Z,11.27
2018-04-29T21:17:29.233Z,12.27
2018-04-29T21:19:55.619Z,13.40
2018-04-29T21:22:21.928Z,11.67
2018-04-29T21:24:48.218Z,12.10
2018-04-29T21:27:14.590Z,12.47
2018-04-29T21:29:40.877Z,11.33
2018-04-29T21:32:07.188Z,10.83
2018-04-29T21:34:33.743Z,11.77
2018-04-29T21:37:00.019Z,13.37
2018-04-29T21:39:26.290Z,11.93
2018-04-29T21:41:52.678Z,11.00
2018-04-29T21:44:18.982Z,12.00
2018-04-29T21:46:45.258Z,12.47
2018-04-29T21:49:11.582Z,11.83
2018-04-29T21:51:37.910Z,11.70
2018-04-29T21:54:04.198Z,11.63
2018-04-29T21:56:30.626Z,11.87
2018-04-29T21:58:57.299Z,11.27
2018-04-29T22:01:23.587Z,13.17
2018-04-29T22:03:49.871Z,13.23
2018-04-29T22:06:16.206Z,12.13
2018-04-29T22:08:42.478Z,11.00
2018-04-29T22:11:08.751Z,11.33
2018-04-29T22:13:35.088Z,13.10
2018-04-29T22:16:01.380Z,12.13
2018-04-29T22:18:27.657Z,12.60
2018-04-29T22:20:54.251Z,13.03
2018-04-29T22:23:20.519Z,14.93
2018-04-29T22:25:46.787Z,14.53
2018-04-29T22:28:13.238Z,14.07
2018-04-29T22:30:39.523Z,10.87
2018-04-29T22:33:05.803Z,11.83
2018-04-29T22:35:32.135Z,10.10
2018-04-29T22:37:58.414Z,12.17
2018-04-29T22:40:24.720Z,12.17
2018-04-29T22:42:51.094Z,11.67
2018-04-29T22:45:17.363Z,11.83
2018-04-29T22:47:43.647Z,12.13
2018-04-29T22:50:09.949Z,12.27
2018-04-29T22:52:36.244Z,13.43
2018-04-29T22:55:02.549Z,14.00
2018-04-29T22:57:28.882Z,13.67
2018-04-29T22:59:55.422Z,14.10
2018-04-29T23:02:21.717Z,14.50
2018-04-29T23:04:48.112Z,13.83
2018-04-29T23:07:14.463Z,14.77
2018-04-29T23:09:40.794Z,15.60
2018-04-29T23:12:07.086Z,16.27
2018-04-29T23:14:33.414Z,13.90
2018-04-29T23:17:00.535Z,17.20
2018-04-29T23:19:26.895Z,15.90
2018-04-29T23:21:53.168Z,16.17
2018-04-29T23:24:19.554Z,15.83
2018-04-29T23:26:45.825Z,17.27
2018-04-29T23:29:12.103Z,11.87
2018-04-29T23:31:38.477Z,11.33
2018-04-29T23:34:04.764Z,12.43
2018-04-29T23:36:31.070Z,11.87
2018-04-29T23:38:57.344Z,13.90
2018-04-29T23:41:23.684Z,13.53
2018-04-29T23:43:50.112Z,13.27
2018-04-29T23:46:16.400Z,12.97
2018-04-29T23:48:42.697Z,13.40
2018-04-29T23:51:09.302Z,12.33
2018-04-29T23:53:35.574Z,11.97
2018-04-29T23:56:05.038Z,11.07
2018-04-29T23:58:31.314Z,10.33
